Grand Junction Regional Airport
KGJT : now visible

Airfield :











YOU CAN JOIN US ON...

 
LOGIN :

Register | Disclaimer

   EN    FR    IT 

 









Legend :    VFR   Marginal VFR   IFR   Intensive IFR   Very Intensive IFR
Visi :
Ceiling :
>= 8 km
>= 3000ft
5 to 8 km
1000 to 3000 ft
1500m to 5 km
500 to 1000 ft
800 to 1500m
200 to 500 ft
< 800m
< 200 ft
Symbols :   Thunderstorms  Fog  Heavy snow  Heavy precipitations  Wind > 20 kt







- Airport Elevation : 4858 ft
- IATA code : GJT


KGJT - Grand Junction Regional

CURRENT METAR :
  • 201453Z 17009KT 10SM CLR 22/04 A2988 RMK AO2 SLP047 T02220039 52012

EXPIRED METARs :
  • 201353Z 17008KT 10SM CLR 20/04 A2986 RMK AO2 SLP040 T02000039
  • 201253Z 15010KT 10SM CLR 19/04 A2985 RMK AO2 SLP036 T01940039

TAF KGJT
Valid from the 20 at 12:00 until the 21 at 12:00 UTC


201120Z 2012/2112 15013KT P6SM SKC
FM201600 18012G20KT P6SM FEW250
FM201800 21015G30KT P6SM FEW250
FM210000 27015G24KT P6SM FEW120 SCT250
FM210200 30008KT P6SM FEW250
No reported NOTAMs for that airfield.



MET'MAP, your aeronautical weather chart ! - Copyright ORBIFLY December 2007 - Disclaimer

ORBIFLY MET'MAP TEAM :

Programming & Development : Alexandra Zaïnal
Concept & Development : Baudouin d'Aumeries
Co-Development & Prog : Marc-Olivier Méhu
Technical & hardware support : Manuel Goepfert

Contact : metmap@orbifly.com




SOURCES & CREDITS :

   NOAA       Earth
Advisory